Time;durP1;ratioP1;P1;durP2;ratioP2;P2;SDS_P1;SDS_P2;PMS_P1;PMS_P2;Temp;Humidity;BMP_temperature;BMP_pressure;BME280_temperature;BME280_humidity;BME280_pressure;Samples;Min_cycle;Max_cycle;Signal;HPM_P1;HPM_P2
2023/09/13 00:01:39;;;;;;;0.63;0.63;;;;;;;19.80;100.00;98330.09;4154238;28;20944;-63
2023/09/13 00:03:41;;;;;;;1.00;0.93;;;;;;;19.60;100.00;98341.66;4151654;28;20204;-63
2023/09/13 00:05:43;;;;;;;1.35;0.77;;;;;;;19.67;100.00;98340.13;4150437;28;20208;-63
2023/09/13 00:07:44;;;;;;;1.00;0.90;;;;;;;19.40;100.00;98340.19;4150803;28;20232;-63
2023/09/13 00:09:46;;;;;;;0.82;0.82;;;;;;;19.64;100.00;98339.91;4151965;28;20232;-63
2023/09/13 00:11:48;;;;;;;1.00;0.90;;;;;;;19.58;100.00;98341.97;4168340;28;20212;-63
2023/09/13 00:13:49;;;;;;;1.90;1.20;;;;;;;19.50;100.00;98333.56;4166426;28;20235;-63
2023/09/13 00:15:51;;;;;;;1.05;0.90;;;;;;;19.22;100.00;98329.19;4155017;28;20732;-63
2023/09/13 00:17:53;;;;;;;2.08;1.00;;;;;;;19.36;100.00;98341.09;4150649;28;20317;-63
2023/09/13 00:19:58;;;;;;;0.60;0.60;;;;;;;19.37;100.00;98345.53;4150188;28;20201;-63
2023/09/13 00:22:00;;;;;;;1.63;0.77;;;;;;;19.51;100.00;98340.78;4149382;28;20209;-63
2023/09/13 00:24:01;;;;;;;0.75;0.75;;;;;;;19.57;100.00;98339.53;4153116;28;20220;-63
2023/09/13 00:26:03;;;;;;;0.60;0.60;;;;;;;19.70;100.00;98344.19;4150174;28;20208;-63
2023/09/13 00:28:07;;;;;;;0.40;0.40;;;;;;;19.68;100.00;98335.38;4151934;28;20281;-63
2023/09/13 00:30:10;;;;;;;0.93;0.90;;;;;;;19.58;100.00;98346.72;4169044;28;20208;-64
2023/09/13 00:32:12;;;;;;;5.90;1.02;;;;;;;19.57;100.00;98353.41;4152578;28;20242;-64
2023/09/13 00:34:14;;;;;;;0.88;0.82;;;;;;;19.64;100.00;98351.84;4166346;28;20668;-63
2023/09/13 00:36:15;;;;;;;1.10;0.90;;;;;;;19.75;100.00;98357.97;4154700;28;20721;-63
2023/09/13 00:38:17;;;;;;;0.75;0.75;;;;;;;19.80;100.00;98360.63;4168541;28;20962;-63
2023/09/13 00:40:18;;;;;;;0.40;0.40;;;;;;;19.83;100.00;98360.00;4151962;28;20231;-63
2023/09/13 00:42:20;;;;;;;2.65;0.95;;;;;;;19.64;100.00;98362.13;4153000;28;20740;-63
2023/09/13 00:44:22;;;;;;;0.52;0.52;;;;;;;19.76;100.00;98348.50;4154108;28;20200;-63
2023/09/13 00:46:23;;;;;;;0.63;0.63;;;;;;;19.80;100.00;98355.91;4153643;28;20211;-63
2023/09/13 00:48:26;;;;;;;0.75;0.75;;;;;;;19.92;100.00;98347.03;4150166;28;20231;-63
2023/09/13 00:50:28;;;;;;;0.68;0.63;;;;;;;19.75;100.00;98363.53;4148583;28;20726;-63
2023/09/13 00:52:38;;;;;;;1.27;0.88;;;;;;;19.77;100.00;98358.50;4150697;28;20208;-63
2023/09/13 00:54:40;;;;;;;1.02;1.02;;;;;;;19.80;100.00;98357.84;4153174;28;20238;-63
2023/09/13 00:56:42;;;;;;;0.75;0.55;;;;;;;19.51;100.00;98358.22;4151544;28;20669;-63
2023/09/13 00:58:44;;;;;;;1.42;1.25;;;;;;;19.29;100.00;98357.34;4149394;28;20765;-63
2023/09/13 01:00:53;;;;;;;0.60;0.60;;;;;;;19.24;100.00;98354.69;4150080;28;20212;-64
2023/09/13 01:02:55;;;;;;;1.35;1.20;;;;;;;19.25;100.00;98353.56;4150519;28;20228;-64
2023/09/13 01:04:57;;;;;;;1.35;0.90;;;;;;;19.32;100.00;98374.19;4150267;28;20296;-65
2023/09/13 01:06:59;;;;;;;1.85;1.08;;;;;;;19.36;100.00;98366.91;4154845;28;20205;-64
2023/09/13 01:09:04;;;;;;;0.95;0.95;;;;;;;19.11;100.00;98372.13;4152721;28;20234;-65
2023/09/13 01:11:06;;;;;;;0.98;0.98;;;;;;;19.19;100.00;98363.09;4152733;28;20666;-64
2023/09/13 01:13:08;;;;;;;1.08;0.90;;;;;;;19.22;100.00;98371.63;4153221;28;20201;-64
2023/09/13 01:15:09;;;;;;;1.52;0.90;;;;;;;19.21;100.00;98369.16;4153197;28;20204;-64
2023/09/13 01:17:20;;;;;;;6.57;0.70;;;;;;;19.17;100.00;98379.22;4153312;28;20308;-64
2023/09/13 01:19:37;;;;;;;1.48;1.35;;;;;;;19.28;100.00;98369.56;4152713;28;20597;-63
2023/09/13 01:22:07;;;;;;;1.52;1.08;;;;;;;19.34;100.00;98373.88;4165741;28;20652;-63
2023/09/13 01:24:47;;;;;;;5.53;1.67;;;;;;;19.30;100.00;98372.84;4152668;28;20192;-65
2023/09/13 01:27:14;;;;;;;4.25;0.98;;;;;;;19.35;100.00;98375.53;4151915;28;20201;-63
2023/09/13 01:29:16;;;;;;;1.25;0.80;;;;;;;19.49;100.00;98370.78;4134228;28;20265;-64
2023/09/13 01:31:18;;;;;;;0.63;0.63;;;;;;;19.54;100.00;98382.63;4135983;28;20291;-64
2023/09/13 01:33:19;;;;;;;1.05;0.80;;;;;;;19.53;100.00;98380.13;4152876;28;20258;-64
2023/09/13 01:35:21;;;;;;;1.50;1.40;;;;;;;19.52;100.00;98381.28;4151425;28;20205;-64
2023/09/13 01:37:23;;;;;;;1.27;1.17;;;;;;;19.59;100.00;98392.78;4151475;28;20259;-64
2023/09/13 01:39:24;;;;;;;1.27;1.08;;;;;;;19.51;100.00;98387.97;4148545;28;20286;-64
2023/09/13 01:41:30;;;;;;;1.10;1.10;;;;;;;19.62;100.00;98389.38;4152201;28;20251;-63
2023/09/13 01:43:32;;;;;;;1.90;1.52;;;;;;;19.51;100.00;98396.28;4166759;28;20197;-63
2023/09/13 01:45:34;;;;;;;1.27;1.02;;;;;;;19.51;100.00;98397.09;4152333;28;20283;-64
2023/09/13 01:47:38;;;;;;;0.88;0.80;;;;;;;19.32;100.00;98392.81;4153617;28;20201;-65
2023/09/13 01:49:42;;;;;;;1.58;1.48;;;;;;;19.24;100.00;98397.13;4151787;28;20232;-64
2023/09/13 01:51:45;;;;;;;1.20;1.00;;;;;;;19.33;100.00;98394.44;4168312;28;20677;-64
2023/09/13 01:53:47;;;;;;;1.38;1.25;;;;;;;19.21;100.00;98399.69;4153144;28;20816;-64
2023/09/13 01:55:49;;;;;;;1.98;1.80;;;;;;;19.32;100.00;98393.63;4151175;28;20208;-66
2023/09/13 01:57:50;;;;;;;2.05;1.38;;;;;;;19.22;100.00;98381.91;4149373;28;20224;-65
2023/09/13 01:59:52;;;;;;;2.05;1.85;;;;;;;19.22;100.00;98387.47;4151537;28;20205;-66
2023/09/13 02:01:54;;;;;;;2.28;1.52;;;;;;;19.38;100.00;98386.03;4152595;28;20709;-64
2023/09/13 02:03:56;;;;;;;1.25;1.15;;;;;;;19.40;100.00;98392.09;4167346;28;20298;-65
2023/09/13 02:05:58;;;;;;;1.33;1.23;;;;;;;19.51;100.00;98401.84;4150363;28;20339;-65
2023/09/13 02:08:00;;;;;;;2.13;1.92;;;;;;;19.41;100.00;98397.34;4148134;28;20200;-64
2023/09/13 02:10:02;;;;;;;2.20;1.60;;;;;;;19.42;100.00;98392.59;4154367;28;20826;-64
2023/09/13 02:12:05;;;;;;;2.25;1.27;;;;;;;19.51;100.00;98397.09;4162408;28;20644;-65
2023/09/13 02:14:07;;;;;;;1.35;1.25;;;;;;;19.38;100.00;98391.56;4149719;28;20216;-64
2023/09/13 02:16:09;;;;;;;6.05;1.83;;;;;;;19.39;100.00;98393.22;4151512;28;20235;-65
2023/09/13 02:18:10;;;;;;;1.90;1.25;;;;;;;19.39;100.00;98396.00;4151864;28;20594;-65
2023/09/13 02:20:12;;;;;;;2.40;1.60;;;;;;;19.43;100.00;98395.06;4150217;28;20213;-64
2023/09/13 02:22:14;;;;;;;7.20;1.88;;;;;;;19.46;100.00;98404.72;4152133;28;20208;-65
2023/09/13 02:24:15;;;;;;;1.27;1.17;;;;;;;19.50;100.00;98400.16;4152647;28;20213;-64
2023/09/13 02:26:18;;;;;;;1.80;1.60;;;;;;;19.48;100.00;98402.44;4151934;28;20340;-65
2023/09/13 02:28:20;;;;;;;1.65;1.35;;;;;;;19.46;100.00;98396.41;4151011;28;20786;-65
2023/09/13 02:30:22;;;;;;;1.50;1.38;;;;;;;19.45;100.00;98391.97;4148705;28;20205;-64
2023/09/13 02:32:24;;;;;;;1.33;1.23;;;;;;;19.32;100.00;98393.63;4150609;28;20693;-65
2023/09/13 02:34:26;;;;;;;1.67;1.58;;;;;;;19.42;100.00;98406.47;4148055;28;20295;-65
2023/09/13 02:36:28;;;;;;;1.42;1.33;;;;;;;19.38;100.00;98402.69;4150091;28;20849;-64
2023/09/13 02:38:30;;;;;;;1.35;1.25;;;;;;;19.45;100.00;98406.66;4151724;28;20260;-64
2023/09/13 02:40:31;;;;;;;2.15;1.40;;;;;;;19.50;100.00;98400.16;4150711;28;20306;-64
2023/09/13 02:42:33;;;;;;;1.42;1.15;;;;;;;19.60;100.00;98405.53;4151228;28;20205;-64
2023/09/13 02:44:35;;;;;;;2.13;1.70;;;;;;;19.61;100.00;98390.50;4151404;28;20205;-64
2023/09/13 02:46:37;;;;;;;1.00;0.95;;;;;;;19.69;100.00;98393.38;4150641;28;20200;-64
2023/09/13 02:48:39;;;;;;;0.90;0.90;;;;;;;19.52;100.00;98392.38;4150752;28;20270;-65
2023/09/13 02:50:41;;;;;;;1.27;1.17;;;;;;;19.55;100.00;98392.59;4148419;28;20662;-64
2023/09/13 02:52:43;;;;;;;1.67;1.52;;;;;;;19.55;100.00;98391.75;4165279;28;20251;-65
2023/09/13 02:54:44;;;;;;;1.80;1.02;;;;;;;19.53;100.00;98394.03;4150174;28;20697;-64
2023/09/13 02:56:49;;;;;;;1.48;1.33;;;;;;;19.57;100.00;98386.72;4150595;28;20655;-66
2023/09/13 02:58:50;;;;;;;2.97;2.20;;;;;;;19.56;100.00;98383.13;4151930;28;20220;-64
2023/09/13 03:00:54;;;;;;;1.17;1.00;;;;;;;19.49;100.00;98387.44;4151692;28;20256;-65
2023/09/13 03:02:57;;;;;;;2.45;2.22;;;;;;;19.36;100.00;98391.03;4150356;28;20258;-65
2023/09/13 03:04:59;;;;;;;1.52;1.42;;;;;;;19.18;100.00;98394.75;4151219;28;20924;-65
2023/09/13 03:07:01;;;;;;;2.33;1.80;;;;;;;19.44;100.00;98395.88;4155105;28;20299;-64
2023/09/13 03:09:03;;;;;;;1.55;1.48;;;;;;;19.29;100.00;98394.25;4151237;28;20223;-65
2023/09/13 03:11:12;;;;;;;1.75;1.65;;;;;;;19.33;100.00;98408.31;4149603;28;20701;-64
2023/09/13 03:13:14;;;;;;;1.13;1.02;;;;;;;19.35;100.00;98403.28;4150540;28;20247;-63
2023/09/13 03:15:15;;;;;;;2.50;2.30;;;;;;;19.38;100.00;98397.94;4153934;28;20270;-64
2023/09/13 03:17:17;;;;;;;1.58;1.48;;;;;;;19.26;100.00;98394.03;4149656;28;20389;-64
2023/09/13 03:19:18;;;;;;;2.80;2.05;;;;;;;19.36;100.00;98393.81;4152375;28;20224;-66
2023/09/13 03:21:20;;;;;;;1.77;1.58;;;;;;;19.29;100.00;98398.97;4157191;28;20262;-65
2023/09/13 03:23:22;;;;;;;1.70;1.60;;;;;;;19.21;100.00;98385.81;4155195;28;20230;-64
2023/09/13 03:25:23;;;;;;;1.55;1.20;;;;;;;19.31;100.00;98391.19;4155793;28;20204;-65
2023/09/13 03:27:25;;;;;;;1.90;1.80;;;;;;;19.34;100.00;98391.38;4155246;28;20222;-65
2023/09/13 03:29:27;;;;;;;1.25;1.15;;;;;;;19.31;100.00;98385.63;4156037;28;20251;-63
2023/09/13 03:31:30;;;;;;;1.85;1.58;;;;;;;19.30;100.00;98386.72;4157163;28;20723;-64
2023/09/13 03:33:32;;;;;;;2.55;1.83;;;;;;;19.30;100.00;98383.94;4156274;28;20208;-64
2023/09/13 03:35:33;;;;;;;3.20;2.90;;;;;;;19.27;100.00;98384.59;4154521;28;20200;-65
2023/09/13 03:37:36;;;;;;;3.03;1.80;;;;;;;19.08;100.00;98381.06;4155370;28;20236;-65
2023/09/13 03:39:37;;;;;;;1.70;1.60;;;;;;;19.09;100.00;98382.69;4155401;28;20232;-63
2023/09/13 03:41:39;;;;;;;1.80;1.58;;;;;;;19.02;100.00;98385.06;4155425;28;20839;-64
2023/09/13 03:43:40;;;;;;;1.25;1.10;;;;;;;18.99;100.00;98374.59;4156701;28;20291;-63
2023/09/13 03:45:43;;;;;;;2.20;2.00;;;;;;;18.99;100.00;98382.91;4155746;28;20212;-63
2023/09/13 03:47:44;;;;;;;2.67;1.95;;;;;;;18.99;100.00;98385.69;4167151;28;20203;-64
2023/09/13 03:49:46;;;;;;;4.07;1.95;;;;;;;18.85;100.00;98377.34;4152936;28;20224;-64
2023/09/13 03:51:48;;;;;;;3.67;2.65;;;;;;;18.75;100.00;98376.72;4152054;28;20307;-64
2023/09/13 03:53:49;;;;;;;1.98;1.70;;;;;;;18.78;100.00;98382.47;4149888;28;20204;-63
2023/09/13 03:55:52;;;;;;;2.22;1.80;;;;;;;18.73;100.00;98378.97;4151832;28;20237;-64
2023/09/13 03:57:54;;;;;;;1.75;1.65;;;;;;;18.77;100.00;98380.03;4155105;28;20221;-64
2023/09/13 03:59:55;;;;;;;2.42;2.22;;;;;;;18.71;100.00;98386.78;4156810;28;20205;-63
2023/09/13 04:01:57;;;;;;;1.70;1.60;;;;;;;18.66;100.00;98379.38;4158345;28;20737;-63
2023/09/13 04:04:00;;;;;;;2.03;1.80;;;;;;;18.69;100.00;98377.94;4174313;28;20294;-64
2023/09/13 04:06:02;;;;;;;1.58;1.48;;;;;;;18.78;100.00;98381.66;4156668;28;20207;-64
2023/09/13 04:08:04;;;;;;;1.92;1.80;;;;;;;18.85;100.00;98376.53;4157341;28;20646;-64
2023/09/13 04:10:06;;;;;;;2.08;1.88;;;;;;;18.76;100.00;98378.34;4157124;28;20208;-65
2023/09/13 04:12:08;;;;;;;1.75;1.65;;;;;;;18.82;100.00;98383.50;4156068;28;20240;-62
2023/09/13 04:14:10;;;;;;;9.77;2.00;;;;;;;18.89;100.00;98383.09;4171014;28;20317;-63
2023/09/13 04:16:15;;;;;;;2.95;2.75;;;;;;;18.78;100.00;98381.66;4155227;28;20204;-63
2023/09/13 04:18:17;;;;;;;2.40;1.95;;;;;;;18.67;100.00;98381.03;4158912;28;20965;-65
2023/09/13 04:20:20;;;;;;;2.97;2.22;;;;;;;18.63;100.00;98381.94;4135886;28;20217;-64
2023/09/13 04:22:21;;;;;;;1.85;1.63;;;;;;;18.70;100.00;98379.56;4146265;28;20209;-64
2023/09/13 04:24:23;;;;;;;2.20;2.10;;;;;;;18.71;100.00;98386.78;4152172;28;20724;-63
2023/09/13 04:26:25;;;;;;;8.15;2.63;;;;;;;18.67;100.00;98391.28;4166960;28;20204;-64
2023/09/13 04:28:26;;;;;;;3.08;2.33;;;;;;;18.79;100.00;98389.66;4157067;28;20220;-64
2023/09/13 04:30:28;;;;;;;2.88;1.88;;;;;;;18.86;100.00;98392.03;4155782;28;20216;-63
2023/09/13 04:32:30;;;;;;;1.35;1.20;;;;;;;18.88;100.00;98398.09;4153005;28;20205;-63
2023/09/13 04:34:36;;;;;;;3.20;2.72;;;;;;;18.89;100.00;98402.50;4153478;28;20338;-66
2023/09/13 04:36:38;;;;;;;2.40;2.20;;;;;;;18.90;100.00;98395.81;4158295;28;20201;-63
2023/09/13 04:38:39;;;;;;;2.67;1.90;;;;;;;18.98;100.00;98403.47;4153442;28;20236;-64
2023/09/13 04:40:43;;;;;;;2.42;2.22;;;;;;;19.07;100.00;98401.63;4151634;28;20335;-64
2023/09/13 04:42:55;;;;;;;4.47;1.50;;;;;;;19.14;100.00;98396.47;4163824;28;20213;-65
2023/09/13 04:44:57;;;;;;;2.13;1.77;;;;;;;19.11;100.00;98400.69;4153136;28;20212;-63
2023/09/13 04:46:59;;;;;;;7.55;3.05;;;;;;;19.06;100.00;98394.41;4155772;28;20209;-58
2023/09/13 04:49:02;;;;;;;2.42;1.95;;;;;;;19.03;100.00;98398.63;4151253;28;20848;-62
2023/09/13 04:51:04;;;;;;;1.77;1.67;;;;;;;19.10;100.00;98389.88;4153861;28;20770;-61
2023/09/13 04:53:07;;;;;;;4.00;2.17;;;;;;;19.02;100.00;98399.75;4170796;28;20216;-62
2023/09/13 04:55:08;;;;;;;1.02;0.95;;;;;;;19.05;100.00;98406.66;4153925;28;20213;-63
2023/09/13 04:57:10;;;;;;;1.80;1.70;;;;;;;19.05;100.00;98412.19;4151193;28;20208;-61
2023/09/13 04:59:12;;;;;;;2.00;1.90;;;;;;;19.10;100.00;98417.63;4155097;28;20232;-62
2023/09/13 05:01:16;;;;;;;2.08;1.88;;;;;;;19.21;100.00;98413.56;4155341;28;20213;-62
2023/09/13 05:03:18;;;;;;;2.22;1.88;;;;;;;19.30;100.00;98411.69;4152401;28;20720;-62
2023/09/13 05:05:20;;;;;;;1.52;1.30;;;;;;;19.14;100.00;98418.66;4153411;28;20266;-62
2023/09/13 05:07:23;;;;;;;1.70;1.42;;;;;;;19.28;100.00;98425.06;4152152;28;20200;-62
2023/09/13 05:09:24;;;;;;;2.08;1.88;;;;;;;19.20;100.00;98428.56;4151357;28;20228;-62
2023/09/13 05:11:26;;;;;;;1.70;1.35;;;;;;;19.20;100.00;98423.84;4153939;28;20718;-61
2023/09/13 05:13:28;;;;;;;4.18;2.33;;;;;;;19.10;100.00;98418.47;4156181;28;20209;-62
2023/09/13 05:15:30;;;;;;;2.15;2.05;;;;;;;19.10;100.00;98423.19;4155782;28;20258;-62
2023/09/13 05:17:31;;;;;;;8.30;1.58;;;;;;;19.22;100.00;98426.31;4170157;28;20754;-62
2023/09/13 05:19:33;;;;;;;3.78;2.13;;;;;;;19.08;100.00;98425.44;4152654;28;20232;-62
2023/09/13 05:21:38;;;;;;;5.55;2.58;;;;;;;19.04;100.00;98430.78;4169021;28;20622;-63
2023/09/13 05:23:39;;;;;;;1.17;1.00;;;;;;;19.07;100.00;98434.91;4166956;28;20212;-62
2023/09/13 05:27:46;;;;;;;2.10;1.50;;;;;;;19.16;100.00;98444.16;4145218;28;20212;-47
2023/09/13 05:29:48;;;;;;;3.42;3.13;;;;;;;19.15;100.00;98436.97;4150406;28;20205;-45
2023/09/13 05:31:50;;;;;;;1.60;1.50;;;;;;;19.18;100.00;98436.34;4149906;28;20675;-46
2023/09/13 05:33:52;;;;;;;4.70;1.98;;;;;;;19.18;100.00;98439.13;4153850;28;20225;-47
2023/09/13 05:35:54;;;;;;;2.70;2.50;;;;;;;19.18;100.00;98436.34;4153895;28;20212;-46
2023/09/13 05:37:56;;;;;;;1.90;1.73;;;;;;;19.24;100.00;98444.28;4150991;28;20216;-46
2023/09/13 05:39:59;;;;;;;3.53;1.60;;;;;;;19.08;100.00;98448.47;4118318;28;20236;-46
2023/09/13 05:42:03;;;;;;;1.48;1.38;;;;;;;19.19;100.00;98449.09;4132444;28;20216;-48
2023/09/13 05:44:09;;;;;;;1.95;1.35;;;;;;;19.11;100.00;98458.13;4148382;28;20282;-48
2023/09/13 05:46:11;;;;;;;1.90;1.63;;;;;;;19.04;100.00;98446.63;4149491;28;20209;-47
2023/09/13 05:48:13;;;;;;;2.05;1.75;;;;;;;18.99;100.00;98447.50;4149915;28;20331;-45
2023/09/13 05:50:15;;;;;;;12.82;2.20;;;;;;;19.16;100.00;98446.91;4136504;28;20213;-47
2023/09/13 05:52:17;;;;;;;3.85;1.60;;;;;;;19.01;100.00;98455.53;4150591;28;20209;-46
2023/09/13 05:54:18;;;;;;;2.63;1.58;;;;;;;19.10;100.00;98457.31;4135613;28;20225;-45
2023/09/13 05:56:20;;;;;;;1.70;1.60;;;;;;;19.14;100.00;98451.97;4120324;28;20205;-45
2023/09/13 06:08:03;;;;;;;1.95;1.83;;;;;;;19.15;100.00;98464.69;4148436;28;20651;-45
2023/09/13 06:10:06;;;;;;;2.20;1.88;;;;;;;18.88;100.00;98459.09;4132968;28;20205;-45
2023/09/13 06:12:08;;;;;;;3.47;2.60;;;;;;;18.88;100.00;98465.50;4130316;28;20209;-45
2023/09/13 06:14:10;;;;;;;1.88;1.77;;;;;;;18.95;100.00;98470.63;4126763;28;20232;-45
2023/09/13 06:16:12;;;;;;;2.67;2.47;;;;;;;18.96;100.00;98466.72;4145869;28;20624;-45
2023/09/13 06:18:15;;;;;;;8.43;1.95;;;;;;;18.94;100.00;98469.81;4132689;28;20673;-45
2023/09/13 06:20:17;;;;;;;2.72;1.77;;;;;;;18.94;100.00;98474.53;4131772;28;20210;-45
2023/09/13 06:22:19;;;;;;;1.48;1.38;;;;;;;18.97;100.00;98473.94;4146807;28;20970;-46
2023/09/13 06:24:21;;;;;;;2.17;1.67;;;;;;;19.04;100.00;98475.16;4132421;28;20237;-45
2023/09/13 06:26:23;;;;;;;2.90;2.17;;;;;;;19.15;100.00;98475.81;4149497;28;20300;-45
2023/09/13 06:28:25;;;;;;;2.85;1.70;;;;;;;19.15;100.00;98467.47;4146747;28;20252;-45
2023/09/13 06:30:27;;;;;;;2.67;1.58;;;;;;;19.21;100.00;98474.59;4129915;28;20288;-45
2023/09/13 06:32:29;;;;;;;2.15;1.90;;;;;;;19.39;100.00;98482.03;4144799;28;20205;-45
2023/09/13 06:34:42;;;;;;;1.35;1.25;;;;;;;19.39;100.00;98477.28;4147973;28;20225;-45
2023/09/13 06:36:44;;;;;;;4.57;2.28;;;;;;;19.39;100.00;98470.94;4130187;28;20206;-45
2023/09/13 06:38:47;;;;;;;1.80;1.70;;;;;;;19.51;100.00;98474.03;4131990;28;20222;-45
2023/09/13 06:40:51;;;;;;;1.98;1.52;;;;;;;19.61;100.00;98471.84;4146331;28;20227;-46
2023/09/13 06:42:53;;;;;;;1.73;1.48;;;;;;;19.75;100.00;98469.06;4150370;28;20240;-45
2023/09/13 06:45:02;;;;;;;1.67;1.50;;;;;;;20.03;100.00;98470.66;4133284;28;20235;-45
2023/09/13 06:47:25;;;;;;;1.98;1.85;;;;;;;20.10;100.00;98471.09;4146442;28;20967;-45
2023/09/13 06:49:28;;;;;;;7.57;2.22;;;;;;;20.21;100.00;98478.06;4133137;28;20205;-46
2023/09/13 06:51:30;;;;;;;2.15;1.10;;;;;;;20.34;100.00;98488.31;4134468;28;20217;-45
2023/09/13 06:53:35;;;;;;;1.42;1.33;;;;;;;20.38;100.00;98484.59;4135258;28;20263;-46
2023/09/13 06:55:37;;;;;;;2.25;1.30;;;;;;;20.62;100.00;98492.63;4123713;28;20269;-45
2023/09/13 06:57:42;;;;;;;1.10;1.00;;;;;;;20.72;100.00;98493.19;4136438;28;20273;-46
2023/09/13 06:59:47;;;;;;;1.02;0.93;;;;;;;20.79;100.00;98496.34;4122365;28;20786;-45
2023/09/13 07:01:57;;;;;;;1.38;1.27;;;;;;;21.05;100.00;98494.59;4147993;28;20242;-45
2023/09/13 07:04:19;;;;;;;1.75;1.65;;;;;;;21.35;100.00;98498.53;4122679;28;20373;-45
2023/09/13 07:06:31;;;;;;;0.60;0.60;;;;;;;21.51;97.52;98497.78;4151476;28;20259;-45
2023/09/13 07:08:34;;;;;;;1.65;1.05;;;;;;;21.37;96.68;98496.28;4149803;28;20262;-45
2023/09/13 07:10:37;;;;;;;2.08;1.08;;;;;;;21.46;95.82;98499.91;4132806;28;20215;-45
2023/09/13 07:12:39;;;;;;;1.55;1.45;;;;;;;21.38;95.63;98500.69;4130312;28;20731;-46
2023/09/13 07:14:41;;;;;;;2.28;1.20;;;;;;;21.39;96.35;98499.56;4132649;28;20681;-45
2023/09/13 07:16:43;;;;;;;1.40;1.30;;;;;;;21.23;97.59;98512.25;4133609;28;20672;-46
2023/09/13 07:18:46;;;;;;;1.27;1.17;;;;;;;21.34;96.69;98496.91;4132976;28;20213;-46
2023/09/13 07:20:48;;;;;;;1.50;1.27;;;;;;;21.70;95.64;98501.19;4148973;28;20208;-45
2023/09/13 07:22:51;;;;;;;13.48;1.25;;;;;;;21.25;94.85;98504.41;4134752;28;20209;-45
2023/09/13 07:24:53;;;;;;;2.20;1.48;;;;;;;21.55;96.79;98511.91;4148016;28;20339;-45
2023/09/13 07:26:55;;;;;;;1.20;1.10;;;;;;;21.43;95.99;98506.94;4146443;28;20215;-45
2023/09/13 07:28:57;;;;;;;1.23;1.05;;;;;;;21.39;95.25;98510.69;4150559;28;20207;-45
2023/09/13 07:30:59;;;;;;;2.35;1.85;;;;;;;21.20;96.00;98518.44;4149668;28;20287;-46
2023/09/13 07:33:01;;;;;;;3.03;2.15;;;;;;;21.32;95.39;98532.59;4153464;28;20941;-45
2023/09/13 07:35:05;;;;;;;7.72;1.17;;;;;;;21.39;96.91;98530.19;4136294;28;20353;-47
2023/09/13 07:37:08;;;;;;;1.20;1.15;;;;;;;21.32;97.33;98527.03;4134993;28;20221;-45
2023/09/13 07:39:10;;;;;;;1.17;1.08;;;;;;;21.30;96.87;98534.91;4175682;22;20232;-62
2023/09/13 07:41:12;;;;;;;1.02;0.90;;;;;;;21.23;96.20;98546.47;4164900;28;20196;-63
2023/09/13 07:43:16;;;;;;;1.33;1.17;;;;;;;20.94;98.28;98550.84;4134046;28;20670;-62
2023/09/13 07:45:18;;;;;;;1.30;1.20;;;;;;;20.91;98.31;98554.28;4135753;28;20616;-63
2023/09/13 07:47:20;;;;;;;1.77;1.08;;;;;;;20.84;99.35;98559.44;4136284;28;20227;-62
2023/09/13 07:49:22;;;;;;;1.02;0.70;;;;;;;20.84;99.44;98567.78;4134965;28;20604;-63
2023/09/13 07:51:24;;;;;;;1.00;1.00;;;;;;;20.87;98.90;98572.69;4135669;28;20204;-63
2023/09/13 07:53:26;;;;;;;2.50;1.23;;;;;;;20.75;97.81;98561.28;4133250;28;20217;-63
2023/09/13 07:55:27;;;;;;;2.45;1.13;;;;;;;20.84;98.70;98570.56;4135303;28;20233;-62
2023/09/13 07:57:29;;;;;;;1.67;1.58;;;;;;;20.79;98.51;98565.91;4136454;28;20232;-63
2023/09/13 07:59:31;;;;;;;0.85;0.73;;;;;;;20.92;97.91;98570.63;4135567;28;20229;-63
2023/09/13 08:01:33;;;;;;;0.90;0.90;;;;;;;21.02;96.83;98572.34;4132540;28;20209;-63
2023/09/13 08:03:35;;;;;;;1.05;0.80;;;;;;;21.06;97.75;98573.38;4132975;28;20267;-63
2023/09/13 08:05:39;;;;;;;1.20;1.10;;;;;;;21.07;95.97;98575.00;4130492;28;20229;-64
2023/09/13 08:07:44;;;;;;;2.50;1.55;;;;;;;21.03;96.42;98579.53;4152155;28;20270;-64
2023/09/13 08:09:46;;;;;;;1.27;1.17;;;;;;;20.98;96.06;98588.03;4151408;28;20608;-63
2023/09/13 08:11:48;;;;;;;1.52;1.42;;;;;;;21.02;95.25;98586.25;4136710;28;20275;-63
2023/09/13 08:13:50;;;;;;;1.17;1.10;;;;;;;20.96;95.92;98585.56;4138099;28;20850;-63
2023/09/13 08:15:52;;;;;;;1.00;0.90;;;;;;;20.90;96.10;98592.38;4138572;28;20236;-63
2023/09/13 08:17:54;;;;;;;0.80;0.80;;;;;;;20.74;96.21;98588.31;4136195;28;20271;-64
2023/09/13 08:19:56;;;;;;;0.77;0.77;;;;;;;20.89;97.07;98601.88;4137939;28;20229;-64
2023/09/13 08:21:58;;;;;;;1.00;1.00;;;;;;;20.91;96.90;98593.22;4151187;28;20207;-63
2023/09/13 08:24:00;;;;;;;0.80;0.80;;;;;;;20.78;95.71;98602.41;4136298;28;20212;-64
2023/09/13 08:26:02;;;;;;;0.93;0.75;;;;;;;20.79;96.04;98606.84;4137389;28;20292;-64
2023/09/13 08:28:24;;;;;;;1.45;1.35;;;;;;;20.85;96.45;98609.16;4137053;28;20238;-63
2023/09/13 08:30:25;;;;;;;1.67;1.58;;;;;;;20.81;96.20;98613.72;4151737;28;20209;-63
2023/09/13 08:32:28;;;;;;;0.80;0.77;;;;;;;20.78;96.81;98610.75;4137485;28;20208;-64
2023/09/13 08:34:29;;;;;;;1.00;0.90;;;;;;;21.00;94.94;98613.59;4136909;28;20209;-64
2023/09/13 08:36:33;;;;;;;0.60;0.60;;;;;;;21.08;93.65;98615.63;4137925;28;20209;-64
2023/09/13 08:38:35;;;;;;;0.98;0.98;;;;;;;21.27;93.56;98608.72;4136114;28;20566;-64
2023/09/13 08:40:41;;;;;;;1.00;0.90;;;;;;;21.31;91.65;98615.28;4150295;28;20717;-63
2023/09/13 08:42:43;;;;;;;0.63;0.63;;;;;;;21.52;91.51;98610.03;4165932;28;20207;-63
2023/09/13 08:44:45;;;;;;;0.65;0.65;;;;;;;21.58;90.05;98619.91;4150271;28;20212;-64
2023/09/13 08:46:48;;;;;;;1.40;0.90;;;;;;;21.72;89.19;98620.69;4161754;28;20231;-66
2023/09/13 08:48:50;;;;;;;1.30;1.20;;;;;;;21.55;88.36;98620.53;4146667;28;20231;-66
2023/09/13 08:50:52;;;;;;;0.85;0.68;;;;;;;21.62;87.74;98621.72;4150807;28;20217;-64
2023/09/13 08:52:55;;;;;;;0.63;0.63;;;;;;;21.76;86.24;98627.22;4152487;28;20291;-65
2023/09/13 08:54:57;;;;;;;0.60;0.60;;;;;;;21.70;87.77;98622.97;4147743;28;20216;-65
2023/09/13 08:57:00;;;;;;;1.17;1.10;;;;;;;21.63;87.65;98617.00;4149362;28;20271;-65
2023/09/13 08:59:02;;;;;;;0.73;0.73;;;;;;;21.75;87.73;98626.44;4164871;28;20315;-65
2023/09/13 09:01:06;;;;;;;1.35;0.90;;;;;;;21.89;85.76;98626.31;4150702;28;20244;-67
2023/09/13 09:03:09;;;;;;;1.48;1.27;;;;;;;21.89;84.65;98616.00;4148990;28;20208;-65
2023/09/13 09:05:12;;;;;;;1.63;1.17;;;;;;;22.15;85.79;98618.91;4147538;28;20295;-67
2023/09/13 09:07:14;;;;;;;0.77;0.77;;;;;;;22.61;84.76;98613.66;4153272;28;20216;-68
2023/09/13 09:09:19;;;;;;;0.73;0.65;;;;;;;23.20;82.52;98624.91;4143737;28;20233;-64
2023/09/13 09:11:22;;;;;;;1.20;1.10;;;;;;;23.21;78.06;98614.53;4145637;28;20278;-66
2023/09/13 09:13:28;;;;;;;0.90;0.70;;;;;;;23.00;78.33;98614.34;4166278;28;20269;-66
2023/09/13 09:15:31;;;;;;;0.60;0.60;;;;;;;22.74;78.21;98621.06;4166936;28;20235;-66
2023/09/13 09:17:34;;;;;;;0.98;0.50;;;;;;;22.73;79.33;98625.00;4160064;28;20314;-66
2023/09/13 09:19:36;;;;;;;1.23;1.13;;;;;;;22.42;77.17;98624.22;4147767;28;20231;-65
2023/09/13 09:21:39;;;;;;;1.00;0.98;;;;;;;22.44;80.15;98622.00;4146641;28;20204;-65
2023/09/13 09:23:41;;;;;;;1.55;1.35;;;;;;;22.17;78.76;98628.59;4150321;28;20231;-68
2023/09/13 09:25:44;;;;;;;0.80;0.70;;;;;;;22.19;79.79;98625.47;4151064;28;20897;-66
2023/09/13 09:27:46;;;;;;;0.90;0.85;;;;;;;22.24;80.24;98626.16;4149055;28;20334;-67
2023/09/13 09:29:59;;;;;;;1.25;0.98;;;;;;;22.27;79.04;98633.88;4152258;28;20233;-65
2023/09/13 09:32:00;;;;;;;3.05;1.58;;;;;;;22.19;79.32;98636.63;4153623;28;20246;-66
2023/09/13 09:34:03;;;;;;;1.17;1.08;;;;;;;22.29;80.28;98642.75;4150752;28;20209;-66
2023/09/13 09:36:05;;;;;;;0.70;0.63;;;;;;;22.33;79.17;98642.91;4151332;28;20616;-66
2023/09/13 09:38:21;;;;;;;0.80;0.80;;;;;;;22.37;79.55;98646.72;4149498;28;20243;-65
2023/09/13 09:40:23;;;;;;;1.50;0.90;;;;;;;22.39;80.50;98647.19;4150116;28;20225;-65
2023/09/13 09:42:30;;;;;;;0.88;0.88;;;;;;;22.06;80.88;98646.75;4151029;28;20796;-65
2023/09/13 09:44:32;;;;;;;1.13;0.80;;;;;;;22.11;80.33;98641.03;4167774;28;20239;-67
2023/09/13 09:46:34;;;;;;;0.82;0.63;;;;;;;22.22;80.51;98647.97;4147255;28;20212;-64